sensor_id;sensor_type;location;lat;lon;timestamp;temperature;humidity
5334;DHT22;2689;50.954;7.116;2022-11-20T00:00:09;4.90;99.90
5334;DHT22;2689;50.954;7.116;2022-11-20T00:02:43;4.90;99.90
5334;DHT22;2689;50.954;7.116;2022-11-20T00:05:12;4.90;99.90
5334;DHT22;2689;50.954;7.116;2022-11-20T00:07:39;4.80;99.90
5334;DHT22;2689;50.954;7.116;2022-11-20T00:10:09;4.80;99.90
5334;DHT22;2689;50.954;7.116;2022-11-20T00:12:36;4.80;99.90
5334;DHT22;2689;50.954;7.116;2022-11-20T00:17:47;4.80;99.90
5334;DHT22;2689;50.954;7.116;2022-11-20T00:20:14;4.80;99.90
5334;DHT22;2689;50.954;7.116;2022-11-20T00:22:41;4.80;99.90
5334;DHT22;2689;50.954;7.116;2022-11-20T00:25:08;4.90;99.90
5334;DHT22;2689;50.954;7.116;2022-11-20T00:27:35;4.90;99.90
5334;DHT22;2689;50.954;7.116;2022-11-20T00:30:03;4.80;99.90
5334;DHT22;2689;50.954;7.116;2022-11-20T00:32:32;4.80;99.90
5334;DHT22;2689;50.954;7.116;2022-11-20T00:35:02;4.80;99.90
5334;DHT22;2689;50.954;7.116;2022-11-20T00:37:42;4.80;99.90
5334;DHT22;2689;50.954;7.116;2022-11-20T00:40:10;4.80;99.90
5334;DHT22;2689;50.954;7.116;2022-11-20T00:42:39;4.80;99.90
5334;DHT22;2689;50.954;7.116;2022-11-20T00:45:08;4.80;99.90
5334;DHT22;2689;50.954;7.116;2022-11-20T00:47:35;4.80;99.90
5334;DHT22;2689;50.954;7.116;2022-11-20T00:50:06;4.80;99.90
5334;DHT22;2689;50.954;7.116;2022-11-20T00:52:33;4.80;99.90
5334;DHT22;2689;50.954;7.116;2022-11-20T00:55:06;4.80;99.90
5334;DHT22;2689;50.954;7.116;2022-11-20T00:57:33;4.70;99.90
5334;DHT22;2689;50.954;7.116;2022-11-20T01:00:00;4.80;99.90
5334;DHT22;2689;50.954;7.116;2022-11-20T01:02:27;4.80;99.90
5334;DHT22;2689;50.954;7.116;2022-11-20T01:04:54;4.90;99.90
5334;DHT22;2689;50.954;7.116;2022-11-20T01:07:22;4.90;99.90
5334;DHT22;2689;50.954;7.116;2022-11-20T01:09:49;4.80;99.90
5334;DHT22;2689;50.954;7.116;2022-11-20T01:12:19;4.80;99.90
5334;DHT22;2689;50.954;7.116;2022-11-20T01:14:47;4.80;99.90
5334;DHT22;2689;50.954;7.116;2022-11-20T01:17:14;4.70;99.90
5334;DHT22;2689;50.954;7.116;2022-11-20T01:19:41;4.70;99.90
5334;DHT22;2689;50.954;7.116;2022-11-20T01:22:08;4.70;99.90
5334;DHT22;2689;50.954;7.116;2022-11-20T01:24:36;4.70;99.90
5334;DHT22;2689;50.954;7.116;2022-11-20T01:27:06;4.80;99.90
5334;DHT22;2689;50.954;7.116;2022-11-20T01:29:33;4.80;99.90
5334;DHT22;2689;50.954;7.116;2022-11-20T01:32:00;4.80;99.90
5334;DHT22;2689;50.954;7.116;2022-11-20T01:34:30;4.80;99.90
5334;DHT22;2689;50.954;7.116;2022-11-20T01:37:00;4.90;99.90
5334;DHT22;2689;50.954;7.116;2022-11-20T01:39:27;4.90;99.90
5334;DHT22;2689;50.954;7.116;2022-11-20T01:41:56;4.90;99.90
5334;DHT22;2689;50.954;7.116;2022-11-20T01:44:54;4.90;99.90
5334;DHT22;2689;50.954;7.116;2022-11-20T01:47:29;4.90;99.90
5334;DHT22;2689;50.954;7.116;2022-11-20T01:49:59;4.90;99.90
5334;DHT22;2689;50.954;7.116;2022-11-20T01:52:32;4.90;99.90
5334;DHT22;2689;50.954;7.116;2022-11-20T01:55:04;4.90;99.90
5334;DHT22;2689;50.954;7.116;2022-11-20T01:57:48;4.90;99.90
5334;DHT22;2689;50.954;7.116;2022-11-20T02:00:19;4.90;99.90
5334;DHT22;2689;50.954;7.116;2022-11-20T02:02:50;4.90;99.90
5334;DHT22;2689;50.954;7.116;2022-11-20T02:05:23;4.90;99.90
5334;DHT22;2689;50.954;7.116;2022-11-20T02:07:50;4.90;99.90
5334;DHT22;2689;50.954;7.116;2022-11-20T02:10:33;4.90;99.90
5334;DHT22;2689;50.954;7.116;2022-11-20T02:13:02;5.00;99.90
5334;DHT22;2689;50.954;7.116;2022-11-20T02:15:47;5.00;99.90
5334;DHT22;2689;50.954;7.116;2022-11-20T02:18:16;4.90;99.90
5334;DHT22;2689;50.954;7.116;2022-11-20T02:20:45;4.90;99.90
5334;DHT22;2689;50.954;7.116;2022-11-20T02:23:16;4.80;99.90
5334;DHT22;2689;50.954;7.116;2022-11-20T02:25:49;4.80;99.90
5334;DHT22;2689;50.954;7.116;2022-11-20T02:28:18;4.80;99.90
5334;DHT22;2689;50.954;7.116;2022-11-20T02:30:45;4.80;99.90
5334;DHT22;2689;50.954;7.116;2022-11-20T02:33:12;4.80;99.90
5334;DHT22;2689;50.954;7.116;2022-11-20T02:35:42;4.80;99.90
5334;DHT22;2689;50.954;7.116;2022-11-20T02:38:10;4.80;99.90
5334;DHT22;2689;50.954;7.116;2022-11-20T02:40:36;4.80;99.90
5334;DHT22;2689;50.954;7.116;2022-11-20T02:43:05;4.70;99.90
5334;DHT22;2689;50.954;7.116;2022-11-20T02:45:32;4.70;99.90
5334;DHT22;2689;50.954;7.116;2022-11-20T02:47:59;4.70;99.90
5334;DHT22;2689;50.954;7.116;2022-11-20T02:50:26;4.80;99.90
5334;DHT22;2689;50.954;7.116;2022-11-20T02:52:54;4.80;99.90
5334;DHT22;2689;50.954;7.116;2022-11-20T02:55:21;4.70;99.90
5334;DHT22;2689;50.954;7.116;2022-11-20T02:57:48;4.70;99.90
5334;DHT22;2689;50.954;7.116;2022-11-20T03:00:17;4.70;99.90
5334;DHT22;2689;50.954;7.116;2022-11-20T03:02:44;4.70;99.90
5334;DHT22;2689;50.954;7.116;2022-11-20T03:05:11;4.70;99.90
5334;DHT22;2689;50.954;7.116;2022-11-20T03:07:38;4.70;99.90
5334;DHT22;2689;50.954;7.116;2022-11-20T03:10:05;4.70;99.90
5334;DHT22;2689;50.954;7.116;2022-11-20T03:12:32;4.70;99.90
5334;DHT22;2689;50.954;7.116;2022-11-20T03:15:05;4.70;99.90
5334;DHT22;2689;50.954;7.116;2022-11-20T03:17:33;4.70;99.90
5334;DHT22;2689;50.954;7.116;2022-11-20T03:20:00;4.70;99.90
5334;DHT22;2689;50.954;7.116;2022-11-20T03:22:28;4.80;99.90
5334;DHT22;2689;50.954;7.116;2022-11-20T03:24:55;4.80;99.90
5334;DHT22;2689;50.954;7.116;2022-11-20T03:27:22;4.80;99.90
5334;DHT22;2689;50.954;7.116;2022-11-20T03:29:51;4.90;99.90
5334;DHT22;2689;50.954;7.116;2022-11-20T03:32:18;4.90;99.90
5334;DHT22;2689;50.954;7.116;2022-11-20T03:34:47;4.90;99.90
5334;DHT22;2689;50.954;7.116;2022-11-20T03:37:14;4.90;99.90
5334;DHT22;2689;50.954;7.116;2022-11-20T03:39:41;4.90;99.90
5334;DHT22;2689;50.954;7.116;2022-11-20T03:42:08;4.90;99.90
5334;DHT22;2689;50.954;7.116;2022-11-20T03:44:56;4.90;99.90
5334;DHT22;2689;50.954;7.116;2022-11-20T03:47:23;4.90;99.90
5334;DHT22;2689;50.954;7.116;2022-11-20T03:49:51;4.90;99.90
5334;DHT22;2689;50.954;7.116;2022-11-20T03:52:18;4.90;99.90
5334;DHT22;2689;50.954;7.116;2022-11-20T03:54:45;4.90;99.90
5334;DHT22;2689;50.954;7.116;2022-11-20T03:57:13;4.90;99.90
5334;DHT22;2689;50.954;7.116;2022-11-20T03:59:43;4.90;99.90
5334;DHT22;2689;50.954;7.116;2022-11-20T04:02:10;4.90;99.90
5334;DHT22;2689;50.954;7.116;2022-11-20T04:04:37;4.90;99.90
5334;DHT22;2689;50.954;7.116;2022-11-20T04:07:08;4.90;99.90
5334;DHT22;2689;50.954;7.116;2022-11-20T04:09:35;4.90;99.90
5334;DHT22;2689;50.954;7.116;2022-11-20T04:12:02;4.80;99.90
5334;DHT22;2689;50.954;7.116;2022-11-20T04:14:30;4.90;99.90
5334;DHT22;2689;50.954;7.116;2022-11-20T04:16:57;4.90;99.90
5334;DHT22;2689;50.954;7.116;2022-11-20T04:19:24;4.90;99.90
5334;DHT22;2689;50.954;7.116;2022-11-20T04:21:51;4.90;99.90
5334;DHT22;2689;50.954;7.116;2022-11-20T04:24:20;4.80;99.90
5334;DHT22;2689;50.954;7.116;2022-11-20T04:26:47;4.80;99.90
5334;DHT22;2689;50.954;7.116;2022-11-20T04:29:14;4.80;99.90
5334;DHT22;2689;50.954;7.116;2022-11-20T04:31:41;4.80;99.90
5334;DHT22;2689;50.954;7.116;2022-11-20T04:34:10;4.80;99.90
5334;DHT22;2689;50.954;7.116;2022-11-20T04:36:37;4.70;99.90
5334;DHT22;2689;50.954;7.116;2022-11-20T04:39:06;4.60;99.90
5334;DHT22;2689;50.954;7.116;2022-11-20T04:41:35;4.50;99.90
5334;DHT22;2689;50.954;7.116;2022-11-20T04:44:04;4.50;99.90
5334;DHT22;2689;50.954;7.116;2022-11-20T04:46:36;4.40;99.90
5334;DHT22;2689;50.954;7.116;2022-11-20T04:49:03;4.40;99.90
5334;DHT22;2689;50.954;7.116;2022-11-20T04:51:32;4.40;99.90
5334;DHT22;2689;50.954;7.116;2022-11-20T04:53:59;4.30;99.90
5334;DHT22;2689;50.954;7.116;2022-11-20T04:56:26;4.30;99.90
5334;DHT22;2689;50.954;7.116;2022-11-20T04:58:54;4.30;99.90
5334;DHT22;2689;50.954;7.116;2022-11-20T05:01:25;4.30;99.90
5334;DHT22;2689;50.954;7.116;2022-11-20T05:04:02;4.40;99.90
5334;DHT22;2689;50.954;7.116;2022-11-20T05:06:31;4.50;99.90
5334;DHT22;2689;50.954;7.116;2022-11-20T05:08:58;4.50;99.90
5334;DHT22;2689;50.954;7.116;2022-11-20T05:11:28;4.50;99.90
5334;DHT22;2689;50.954;7.116;2022-11-20T05:13:59;4.50;99.90
5334;DHT22;2689;50.954;7.116;2022-11-20T05:16:27;4.60;99.90
5334;DHT22;2689;50.954;7.116;2022-11-20T05:18:57;4.60;99.90
5334;DHT22;2689;50.954;7.116;2022-11-20T05:21:24;4.60;99.90
5334;DHT22;2689;50.954;7.116;2022-11-20T05:24:00;4.60;99.90
5334;DHT22;2689;50.954;7.116;2022-11-20T05:26:27;4.70;99.90
5334;DHT22;2689;50.954;7.116;2022-11-20T05:28:56;4.60;99.90
5334;DHT22;2689;50.954;7.116;2022-11-20T05:31:25;4.60;99.90
5334;DHT22;2689;50.954;7.116;2022-11-20T05:33:55;4.60;99.90
5334;DHT22;2689;50.954;7.116;2022-11-20T05:36:22;4.60;99.90
5334;DHT22;2689;50.954;7.116;2022-11-20T05:38:52;4.60;99.90
5334;DHT22;2689;50.954;7.116;2022-11-20T05:41:20;4.60;99.90
5334;DHT22;2689;50.954;7.116;2022-11-20T05:43:49;4.60;99.90
5334;DHT22;2689;50.954;7.116;2022-11-20T05:46:18;4.70;99.90
5334;DHT22;2689;50.954;7.116;2022-11-20T05:48:48;4.80;99.90
5334;DHT22;2689;50.954;7.116;2022-11-20T05:51:19;4.80;99.90
5334;DHT22;2689;50.954;7.116;2022-11-20T05:53:46;4.70;99.90
5334;DHT22;2689;50.954;7.116;2022-11-20T05:56:16;4.80;99.90
5334;DHT22;2689;50.954;7.116;2022-11-20T05:58:45;4.80;99.90
5334;DHT22;2689;50.954;7.116;2022-11-20T06:01:16;4.80;99.90
5334;DHT22;2689;50.954;7.116;2022-11-20T06:03:44;4.80;99.90
5334;DHT22;2689;50.954;7.116;2022-11-20T06:06:15;4.80;99.90
5334;DHT22;2689;50.954;7.116;2022-11-20T06:08:42;4.80;99.90
5334;DHT22;2689;50.954;7.116;2022-11-20T06:11:12;4.80;99.90
5334;DHT22;2689;50.954;7.116;2022-11-20T06:13:44;4.90;99.90
5334;DHT22;2689;50.954;7.116;2022-11-20T06:16:13;4.90;99.90
5334;DHT22;2689;50.954;7.116;2022-11-20T06:18:46;4.90;99.90
5334;DHT22;2689;50.954;7.116;2022-11-20T06:21:16;4.90;99.90
5334;DHT22;2689;50.954;7.116;2022-11-20T06:23:43;5.00;99.90
5334;DHT22;2689;50.954;7.116;2022-11-20T06:26:12;5.00;99.90
5334;DHT22;2689;50.954;7.116;2022-11-20T06:28:39;5.00;99.90
5334;DHT22;2689;50.954;7.116;2022-11-20T06:31:06;5.00;99.90
5334;DHT22;2689;50.954;7.116;2022-11-20T06:33:34;5.00;99.90
5334;DHT22;2689;50.954;7.116;2022-11-20T06:36:01;5.00;99.90
5334;DHT22;2689;50.954;7.116;2022-11-20T06:38:29;5.00;99.90
5334;DHT22;2689;50.954;7.116;2022-11-20T06:40:56;4.90;99.90
5334;DHT22;2689;50.954;7.116;2022-11-20T06:43:23;4.90;99.90
5334;DHT22;2689;50.954;7.116;2022-11-20T06:45:52;4.90;99.90
5334;DHT22;2689;50.954;7.116;2022-11-20T06:48:19;4.90;99.90
5334;DHT22;2689;50.954;7.116;2022-11-20T06:50:46;4.90;99.90
5334;DHT22;2689;50.954;7.116;2022-11-20T06:53:13;4.90;99.90
5334;DHT22;2689;50.954;7.116;2022-11-20T06:55:43;4.90;99.90
5334;DHT22;2689;50.954;7.116;2022-11-20T06:58:10;4.90;99.90
5334;DHT22;2689;50.954;7.116;2022-11-20T07:00:37;4.90;99.90
5334;DHT22;2689;50.954;7.116;2022-11-20T07:03:05;4.90;99.90
5334;DHT22;2689;50.954;7.116;2022-11-20T07:05:32;4.90;99.90
5334;DHT22;2689;50.954;7.116;2022-11-20T07:07:59;4.80;99.90
5334;DHT22;2689;50.954;7.116;2022-11-20T07:10:26;4.80;99.90
5334;DHT22;2689;50.954;7.116;2022-11-20T07:12:54;4.90;99.90
5334;DHT22;2689;50.954;7.116;2022-11-20T07:15:22;4.90;99.90
5334;DHT22;2689;50.954;7.116;2022-11-20T07:17:49;4.90;99.90
5334;DHT22;2689;50.954;7.116;2022-11-20T07:20:16;4.90;99.90
5334;DHT22;2689;50.954;7.116;2022-11-20T07:22:43;4.80;99.90
5334;DHT22;2689;50.954;7.116;2022-11-20T07:25:10;4.80;99.90
5334;DHT22;2689;50.954;7.116;2022-11-20T07:27:37;4.80;99.90
5334;DHT22;2689;50.954;7.116;2022-11-20T07:30:06;4.80;99.90
5334;DHT22;2689;50.954;7.116;2022-11-20T07:32:33;4.80;99.90
5334;DHT22;2689;50.954;7.116;2022-11-20T07:35:00;4.80;99.90
5334;DHT22;2689;50.954;7.116;2022-11-20T07:37:27;4.80;99.90
5334;DHT22;2689;50.954;7.116;2022-11-20T07:39:54;4.80;99.90
5334;DHT22;2689;50.954;7.116;2022-11-20T07:42:20;4.70;99.90
5334;DHT22;2689;50.954;7.116;2022-11-20T07:44:47;4.70;99.90
5334;DHT22;2689;50.954;7.116;2022-11-20T07:47:15;4.80;99.90
5334;DHT22;2689;50.954;7.116;2022-11-20T07:49:42;4.80;99.90
5334;DHT22;2689;50.954;7.116;2022-11-20T07:52:09;4.80;99.90
5334;DHT22;2689;50.954;7.116;2022-11-20T07:54:36;4.80;99.90
5334;DHT22;2689;50.954;7.116;2022-11-20T07:57:03;4.80;99.90
5334;DHT22;2689;50.954;7.116;2022-11-20T07:59:29;4.90;99.90
5334;DHT22;2689;50.954;7.116;2022-11-20T08:01:56;4.90;99.90
5334;DHT22;2689;50.954;7.116;2022-11-20T08:04:24;5.00;99.90
5334;DHT22;2689;50.954;7.116;2022-11-20T08:06:52;5.00;99.90
5334;DHT22;2689;50.954;7.116;2022-11-20T08:09:18;5.00;99.90
5334;DHT22;2689;50.954;7.116;2022-11-20T08:11:45;5.00;99.90
5334;DHT22;2689;50.954;7.116;2022-11-20T08:14:30;5.10;99.90
5334;DHT22;2689;50.954;7.116;2022-11-20T08:16:57;5.20;99.90
5334;DHT22;2689;50.954;7.116;2022-11-20T08:19:26;5.20;99.90
5334;DHT22;2689;50.954;7.116;2022-11-20T08:21:53;5.30;99.90
5334;DHT22;2689;50.954;7.116;2022-11-20T08:24:25;5.30;99.90
5334;DHT22;2689;50.954;7.116;2022-11-20T08:26:52;5.30;99.90
5334;DHT22;2689;50.954;7.116;2022-11-20T08:29:19;5.40;99.90
5334;DHT22;2689;50.954;7.116;2022-11-20T08:31:46;5.40;99.90
5334;DHT22;2689;50.954;7.116;2022-11-20T08:34:13;5.50;99.90
5334;DHT22;2689;50.954;7.116;2022-11-20T08:36:41;5.60;99.90
5334;DHT22;2689;50.954;7.116;2022-11-20T08:39:10;5.60;99.90
5334;DHT22;2689;50.954;7.116;2022-11-20T08:41:37;5.60;99.90
5334;DHT22;2689;50.954;7.116;2022-11-20T08:44:07;5.70;99.90
5334;DHT22;2689;50.954;7.116;2022-11-20T08:46:35;5.70;99.90
5334;DHT22;2689;50.954;7.116;2022-11-20T08:49:02;5.70;99.90
5334;DHT22;2689;50.954;7.116;2022-11-20T08:51:30;5.80;99.90
5334;DHT22;2689;50.954;7.116;2022-11-20T08:53:58;5.80;99.90
5334;DHT22;2689;50.954;7.116;2022-11-20T08:56:25;5.90;99.90
5334;DHT22;2689;50.954;7.116;2022-11-20T08:58:52;6.00;99.90
5334;DHT22;2689;50.954;7.116;2022-11-20T09:01:21;6.00;99.90
5334;DHT22;2689;50.954;7.116;2022-11-20T09:03:49;6.10;99.90
5334;DHT22;2689;50.954;7.116;2022-11-20T09:06:16;6.10;99.90
5334;DHT22;2689;50.954;7.116;2022-11-20T09:08:43;6.10;99.90
5334;DHT22;2689;50.954;7.116;2022-11-20T09:11:11;6.10;99.90
5334;DHT22;2689;50.954;7.116;2022-11-20T09:13:38;6.10;99.90
5334;DHT22;2689;50.954;7.116;2022-11-20T09:16:06;6.00;99.90
5334;DHT22;2689;50.954;7.116;2022-11-20T09:18:34;6.10;99.90
5334;DHT22;2689;50.954;7.116;2022-11-20T09:21:05;6.20;99.90
5334;DHT22;2689;50.954;7.116;2022-11-20T09:23:34;6.20;99.90
5334;DHT22;2689;50.954;7.116;2022-11-20T09:26:05;6.20;99.90
5334;DHT22;2689;50.954;7.116;2022-11-20T09:28:33;6.20;99.90
5334;DHT22;2689;50.954;7.116;2022-11-20T09:31:00;6.20;99.90
5334;DHT22;2689;50.954;7.116;2022-11-20T09:33:27;6.20;99.90
5334;DHT22;2689;50.954;7.116;2022-11-20T09:35:54;6.20;99.90
5334;DHT22;2689;50.954;7.116;2022-11-20T09:38:20;6.20;99.90
5334;DHT22;2689;50.954;7.116;2022-11-20T09:40:53;6.20;99.90
5334;DHT22;2689;50.954;7.116;2022-11-20T09:43:27;6.30;99.90
5334;DHT22;2689;50.954;7.116;2022-11-20T09:46:04;6.40;99.90
5334;DHT22;2689;50.954;7.116;2022-11-20T09:48:56;6.80;99.90
5334;DHT22;2689;50.954;7.116;2022-11-20T09:51:36;7.10;99.90
5334;DHT22;2689;50.954;7.116;2022-11-20T09:54:15;7.40;99.90
5334;DHT22;2689;50.954;7.116;2022-11-20T09:56:45;7.90;99.90
5334;DHT22;2689;50.954;7.116;2022-11-20T09:59:32;8.20;99.90
5334;DHT22;2689;50.954;7.116;2022-11-20T10:02:02;8.20;98.20
5334;DHT22;2689;50.954;7.116;2022-11-20T10:04:45;8.10;98.30
5334;DHT22;2689;50.954;7.116;2022-11-20T10:07:17;8.00;98.00
5334;DHT22;2689;50.954;7.116;2022-11-20T10:09:51;7.80;98.00
5334;DHT22;2689;50.954;7.116;2022-11-20T10:12:23;7.80;98.60
5334;DHT22;2689;50.954;7.116;2022-11-20T10:15:09;7.80;98.40
5334;DHT22;2689;50.954;7.116;2022-11-20T10:18:00;7.80;98.50
5334;DHT22;2689;50.954;7.116;2022-11-20T10:20:36;7.80;98.80
5334;DHT22;2689;50.954;7.116;2022-11-20T10:23:20;7.80;98.60
5334;DHT22;2689;50.954;7.116;2022-11-20T10:25:58;7.70;98.80
5334;DHT22;2689;50.954;7.116;2022-11-20T10:28:47;7.70;99.40
5334;DHT22;2689;50.954;7.116;2022-11-20T10:31:26;7.70;99.80
5334;DHT22;2689;50.954;7.116;2022-11-20T10:33:56;7.50;99.30
5334;DHT22;2689;50.954;7.116;2022-11-20T10:36:27;7.30;99.40
5334;DHT22;2689;50.954;7.116;2022-11-20T10:38:59;7.10;99.80
5334;DHT22;2689;50.954;7.116;2022-11-20T10:41:30;7.00;99.90
5334;DHT22;2689;50.954;7.116;2022-11-20T10:44:03;7.00;99.90
5334;DHT22;2689;50.954;7.116;2022-11-20T10:46:37;7.00;99.90
5334;DHT22;2689;50.954;7.116;2022-11-20T10:49:12;7.00;99.90
5334;DHT22;2689;50.954;7.116;2022-11-20T10:51:48;7.10;99.90
5334;DHT22;2689;50.954;7.116;2022-11-20T10:54:22;7.20;99.90
5334;DHT22;2689;50.954;7.116;2022-11-20T10:56:52;7.20;99.90
5334;DHT22;2689;50.954;7.116;2022-11-20T10:59:45;7.30;99.90
5334;DHT22;2689;50.954;7.116;2022-11-20T11:02:17;7.30;99.90
5334;DHT22;2689;50.954;7.116;2022-11-20T11:04:46;7.30;99.90
5334;DHT22;2689;50.954;7.116;2022-11-20T11:07:16;7.20;99.90
5334;DHT22;2689;50.954;7.116;2022-11-20T11:09:47;7.20;99.90
5334;DHT22;2689;50.954;7.116;2022-11-20T11:12:14;7.20;99.90
5334;DHT22;2689;50.954;7.116;2022-11-20T11:14:43;7.30;99.90
5334;DHT22;2689;50.954;7.116;2022-11-20T11:17:22;7.30;99.90
5334;DHT22;2689;50.954;7.116;2022-11-20T11:20:15;7.30;99.90
5334;DHT22;2689;50.954;7.116;2022-11-20T11:22:46;7.20;99.90
5334;DHT22;2689;50.954;7.116;2022-11-20T11:25:21;7.20;99.90
5334;DHT22;2689;50.954;7.116;2022-11-20T11:27:49;7.20;99.90
5334;DHT22;2689;50.954;7.116;2022-11-20T11:30:19;7.10;99.90
5334;DHT22;2689;50.954;7.116;2022-11-20T11:32:46;7.10;99.90
5334;DHT22;2689;50.954;7.116;2022-11-20T11:35:24;7.20;99.90
5334;DHT22;2689;50.954;7.116;2022-11-20T11:37:53;7.20;99.90
5334;DHT22;2689;50.954;7.116;2022-11-20T11:40:21;7.10;99.90
5334;DHT22;2689;50.954;7.116;2022-11-20T11:43:01;7.10;99.90
5334;DHT22;2689;50.954;7.116;2022-11-20T11:45:28;7.10;99.90
5334;DHT22;2689;50.954;7.116;2022-11-20T11:47:57;7.10;99.90
5334;DHT22;2689;50.954;7.116;2022-11-20T11:50:27;7.10;99.90
5334;DHT22;2689;50.954;7.116;2022-11-20T11:53:01;7.10;99.90
5334;DHT22;2689;50.954;7.116;2022-11-20T11:55:33;7.10;99.90
5334;DHT22;2689;50.954;7.116;2022-11-20T11:58:14;7.20;99.90
5334;DHT22;2689;50.954;7.116;2022-11-20T12:00:57;7.20;99.90
5334;DHT22;2689;50.954;7.116;2022-11-20T12:03:28;7.20;99.90
5334;DHT22;2689;50.954;7.116;2022-11-20T12:05:59;7.20;99.90
5334;DHT22;2689;50.954;7.116;2022-11-20T12:08:31;7.10;99.90
5334;DHT22;2689;50.954;7.116;2022-11-20T12:11:04;7.10;99.90
5334;DHT22;2689;50.954;7.116;2022-11-20T12:13:40;7.00;99.90
5334;DHT22;2689;50.954;7.116;2022-11-20T12:16:12;7.00;99.90
5334;DHT22;2689;50.954;7.116;2022-11-20T12:19:03;6.90;99.90
5334;DHT22;2689;50.954;7.116;2022-11-20T12:21:43;6.90;99.90
5334;DHT22;2689;50.954;7.116;2022-11-20T12:24:28;6.90;99.90
5334;DHT22;2689;50.954;7.116;2022-11-20T12:27:05;7.00;99.90
5334;DHT22;2689;50.954;7.116;2022-11-20T12:29:43;7.00;99.90
5334;DHT22;2689;50.954;7.116;2022-11-20T12:32:41;7.10;99.90
5334;DHT22;2689;50.954;7.116;2022-11-20T12:35:21;7.10;99.90
5334;DHT22;2689;50.954;7.116;2022-11-20T12:38:06;7.00;99.90
5334;DHT22;2689;50.954;7.116;2022-11-20T12:40:43;7.00;99.90
5334;DHT22;2689;50.954;7.116;2022-11-20T12:43:18;7.00;99.90
5334;DHT22;2689;50.954;7.116;2022-11-20T12:46:18;7.00;99.90
5334;DHT22;2689;50.954;7.116;2022-11-20T12:49:11;7.00;99.90
5334;DHT22;2689;50.954;7.116;2022-11-20T12:51:52;7.10;99.90
5334;DHT22;2689;50.954;7.116;2022-11-20T12:54:42;7.20;99.90
5334;DHT22;2689;50.954;7.116;2022-11-20T12:57:18;7.20;99.90
5334;DHT22;2689;50.954;7.116;2022-11-20T13:00:09;7.30;99.90
5334;DHT22;2689;50.954;7.116;2022-11-20T13:02:52;7.30;99.90
5334;DHT22;2689;50.954;7.116;2022-11-20T13:05:27;7.30;99.90
5334;DHT22;2689;50.954;7.116;2022-11-20T13:07:58;7.30;99.90
5334;DHT22;2689;50.954;7.116;2022-11-20T13:10:33;7.30;99.90
5334;DHT22;2689;50.954;7.116;2022-11-20T13:13:09;7.40;99.90
5334;DHT22;2689;50.954;7.116;2022-11-20T13:15:48;7.60;99.90
5334;DHT22;2689;50.954;7.116;2022-11-20T13:18:20;7.60;99.90
5334;DHT22;2689;50.954;7.116;2022-11-20T13:20:47;7.70;99.90
5334;DHT22;2689;50.954;7.116;2022-11-20T13:23:30;7.80;99.90
5334;DHT22;2689;50.954;7.116;2022-11-20T13:26:14;7.90;99.90
5334;DHT22;2689;50.954;7.116;2022-11-20T13:28:42;8.00;99.90
5334;DHT22;2689;50.954;7.116;2022-11-20T13:31:23;8.00;99.90
5334;DHT22;2689;50.954;7.116;2022-11-20T13:33:53;8.00;99.90
5334;DHT22;2689;50.954;7.116;2022-11-20T13:36:29;8.00;99.90
5334;DHT22;2689;50.954;7.116;2022-11-20T13:38:58;8.00;99.90
5334;DHT22;2689;50.954;7.116;2022-11-20T13:41:28;7.90;99.90
5334;DHT22;2689;50.954;7.116;2022-11-20T13:44:04;7.90;99.90
5334;DHT22;2689;50.954;7.116;2022-11-20T13:46:38;7.90;99.90
5334;DHT22;2689;50.954;7.116;2022-11-20T13:49:09;7.90;99.90
5334;DHT22;2689;50.954;7.116;2022-11-20T13:51:42;7.90;99.90
5334;DHT22;2689;50.954;7.116;2022-11-20T13:54:42;7.90;99.90
5334;DHT22;2689;50.954;7.116;2022-11-20T13:57:39;7.90;99.90
5334;DHT22;2689;50.954;7.116;2022-11-20T14:00:12;7.90;99.90
5334;DHT22;2689;50.954;7.116;2022-11-20T14:02:40;7.90;99.90
5334;DHT22;2689;50.954;7.116;2022-11-20T14:05:19;7.90;99.90
5334;DHT22;2689;50.954;7.116;2022-11-20T14:07:47;7.80;99.90
5334;DHT22;2689;50.954;7.116;2022-11-20T14:10:22;7.80;99.90
5334;DHT22;2689;50.954;7.116;2022-11-20T14:12:51;7.80;99.90
5334;DHT22;2689;50.954;7.116;2022-11-20T14:15:27;7.80;99.90
5334;DHT22;2689;50.954;7.116;2022-11-20T14:18:12;7.80;99.90
5334;DHT22;2689;50.954;7.116;2022-11-20T14:20:39;7.80;99.90
5334;DHT22;2689;50.954;7.116;2022-11-20T14:23:10;7.80;99.90
5334;DHT22;2689;50.954;7.116;2022-11-20T14:25:37;7.70;99.90
5334;DHT22;2689;50.954;7.116;2022-11-20T14:28:20;7.70;99.90
5334;DHT22;2689;50.954;7.116;2022-11-20T14:30:50;7.70;99.90
5334;DHT22;2689;50.954;7.116;2022-11-20T14:33:17;7.60;99.90
5334;DHT22;2689;50.954;7.116;2022-11-20T14:35:47;7.60;99.90
5334;DHT22;2689;50.954;7.116;2022-11-20T14:38:16;7.70;99.90
5334;DHT22;2689;50.954;7.116;2022-11-20T14:40:51;7.60;99.90
5334;DHT22;2689;50.954;7.116;2022-11-20T14:43:31;7.70;99.90
5334;DHT22;2689;50.954;7.116;2022-11-20T14:45:59;7.70;99.90
5334;DHT22;2689;50.954;7.116;2022-11-20T14:49:03;7.70;99.90
5334;DHT22;2689;50.954;7.116;2022-11-20T14:51:43;7.70;99.90
5334;DHT22;2689;50.954;7.116;2022-11-20T14:54:14;7.70;99.90
5334;DHT22;2689;50.954;7.116;2022-11-20T14:56:42;7.70;99.90
5334;DHT22;2689;50.954;7.116;2022-11-20T14:59:34;7.70;99.90
5334;DHT22;2689;50.954;7.116;2022-11-20T15:02:29;7.60;99.90
5334;DHT22;2689;50.954;7.116;2022-11-20T15:04:58;7.70;99.90
5334;DHT22;2689;50.954;7.116;2022-11-20T15:07:29;7.70;99.90
5334;DHT22;2689;50.954;7.116;2022-11-20T15:10:04;7.60;99.90
5334;DHT22;2689;50.954;7.116;2022-11-20T15:12:32;7.60;99.90
5334;DHT22;2689;50.954;7.116;2022-11-20T15:15:13;7.60;99.90
5334;DHT22;2689;50.954;7.116;2022-11-20T15:17:50;7.60;99.90
5334;DHT22;2689;50.954;7.116;2022-11-20T15:20:31;7.60;99.90
5334;DHT22;2689;50.954;7.116;2022-11-20T15:22:58;7.60;99.90
5334;DHT22;2689;50.954;7.116;2022-11-20T15:25:25;7.60;99.90
5334;DHT22;2689;50.954;7.116;2022-11-20T15:27:59;7.60;99.90
5334;DHT22;2689;50.954;7.116;2022-11-20T15:30:46;7.60;99.90
5334;DHT22;2689;50.954;7.116;2022-11-20T15:33:23;7.60;99.90
5334;DHT22;2689;50.954;7.116;2022-11-20T15:35:50;7.60;99.90
5334;DHT22;2689;50.954;7.116;2022-11-20T15:38:23;7.60;99.90
5334;DHT22;2689;50.954;7.116;2022-11-20T15:40:50;7.60;99.90
5334;DHT22;2689;50.954;7.116;2022-11-20T15:43:17;7.60;99.90
5334;DHT22;2689;50.954;7.116;2022-11-20T15:45:46;7.60;99.90
5334;DHT22;2689;50.954;7.116;2022-11-20T15:48:19;7.60;99.90
5334;DHT22;2689;50.954;7.116;2022-11-20T15:50:52;7.50;99.90
5334;DHT22;2689;50.954;7.116;2022-11-20T15:53:28;7.50;99.90
5334;DHT22;2689;50.954;7.116;2022-11-20T15:55:58;7.40;99.90
5334;DHT22;2689;50.954;7.116;2022-11-20T15:58:39;7.40;99.90
5334;DHT22;2689;50.954;7.116;2022-11-20T16:01:24;7.40;99.90
5334;DHT22;2689;50.954;7.116;2022-11-20T16:03:56;7.30;99.90
5334;DHT22;2689;50.954;7.116;2022-11-20T16:06:24;7.30;99.90
5334;DHT22;2689;50.954;7.116;2022-11-20T16:09:09;7.30;99.90
5334;DHT22;2689;50.954;7.116;2022-11-20T16:11:39;7.30;99.90
5334;DHT22;2689;50.954;7.116;2022-11-20T16:14:06;7.20;99.90
5334;DHT22;2689;50.954;7.116;2022-11-20T16:16:52;7.20;99.90
5334;DHT22;2689;50.954;7.116;2022-11-20T16:19:18;7.20;99.90
5334;DHT22;2689;50.954;7.116;2022-11-20T16:21:45;7.30;99.90
5334;DHT22;2689;50.954;7.116;2022-11-20T16:24:13;7.20;99.90
5334;DHT22;2689;50.954;7.116;2022-11-20T16:26:47;7.30;99.90
5334;DHT22;2689;50.954;7.116;2022-11-20T16:29:31;7.30;99.90
5334;DHT22;2689;50.954;7.116;2022-11-20T16:32:00;7.30;99.90
5334;DHT22;2689;50.954;7.116;2022-11-20T16:34:27;7.30;99.90
5334;DHT22;2689;50.954;7.116;2022-11-20T16:39:50;7.40;99.90
5334;DHT22;2689;50.954;7.116;2022-11-20T16:42:52;7.40;99.90
5334;DHT22;2689;50.954;7.116;2022-11-20T16:45:25;7.40;99.90
5334;DHT22;2689;50.954;7.116;2022-11-20T16:48:28;7.40;99.90
5334;DHT22;2689;50.954;7.116;2022-11-20T16:51:13;7.40;99.90